sensor_id;sensor_type;location;lat;lon;timestamp;pressure;altitude;pressure_sealevel;temperature;humidity
68994;BME280;56054;50.968;5.816;2023-07-22T00:00:21;100651.13;;;15.86;74.30
68994;BME280;56054;50.968;5.816;2023-07-22T00:03:28;100657.72;;;15.76;74.71
68994;BME280;56054;50.968;5.816;2023-07-22T00:06:35;100657.63;;;15.75;75.43
68994;BME280;56054;50.968;5.816;2023-07-22T00:09:42;100651.06;;;15.84;74.48
68994;BME280;56054;50.968;5.816;2023-07-22T00:12:49;100656.56;;;15.70;75.65
68994;BME280;56054;50.968;5.816;2023-07-22T00:15:56;100654.16;;;15.55;77.02
68994;BME280;56054;50.968;5.816;2023-07-22T00:19:03;100644.78;;;15.60;76.36
68994;BME280;56054;50.968;5.816;2023-07-22T00:22:10;100648.47;;;15.65;76.27
68994;BME280;56054;50.968;5.816;2023-07-22T00:25:17;100646.19;;;15.52;77.22
68994;BME280;56054;50.968;5.816;2023-07-22T00:28:24;100641.34;;;15.40;78.00
68994;BME280;56054;50.968;5.816;2023-07-22T00:31:31;100639.50;;;15.58;76.98
68994;BME280;56054;50.968;5.816;2023-07-22T00:34:38;100642.66;;;15.71;77.03
68994;BME280;56054;50.968;5.816;2023-07-22T00:37:45;100644.78;;;15.60;77.70
68994;BME280;56054;50.968;5.816;2023-07-22T00:40:52;100640.56;;;15.63;77.68
68994;BME280;56054;50.968;5.816;2023-07-22T00:43:59;100646.00;;;15.68;76.99
68994;BME280;56054;50.968;5.816;2023-07-22T00:47:06;100650.59;;;15.53;78.21
68994;BME280;56054;50.968;5.816;2023-07-22T00:50:14;100642.88;;;15.56;78.75
68994;BME280;56054;50.968;5.816;2023-07-22T00:53:21;100634.75;;;15.50;78.72
68994;BME280;56054;50.968;5.816;2023-07-22T00:56:28;100634.06;;;15.54;79.10
68994;BME280;56054;50.968;5.816;2023-07-22T00:59:45;100627.41;;;15.62;79.15
68994;BME280;56054;50.968;5.816;2023-07-22T01:02:52;100632.84;;;15.67;79.05
68994;BME280;56054;50.968;5.816;2023-07-22T01:05:59;100630.03;;;15.62;79.29
68994;BME280;56054;50.968;5.816;2023-07-22T01:09:06;100633.59;;;15.64;79.55
68994;BME280;56054;50.968;5.816;2023-07-22T01:12:13;100622.81;;;15.56;79.48
68994;BME280;56054;50.968;5.816;2023-07-22T01:15:20;100620.97;;;15.54;79.81
68994;BME280;56054;50.968;5.816;2023-07-22T01:18:27;100622.28;;;15.65;80.04
68994;BME280;56054;50.968;5.816;2023-07-22T01:21:34;100609.06;;;15.62;79.73
68994;BME280;56054;50.968;5.816;2023-07-22T01:24:43;100618.66;;;15.61;79.99
68994;BME280;56054;50.968;5.816;2023-07-22T01:27:51;100614.84;;;15.53;80.54
68994;BME280;56054;50.968;5.816;2023-07-22T01:30:58;100616.31;;;15.47;80.51
68994;BME280;56054;50.968;5.816;2023-07-22T01:34:05;100610.41;;;15.31;81.57
68994;BME280;56054;50.968;5.816;2023-07-22T01:37:12;100598.69;;;15.43;81.29
68994;BME280;56054;50.968;5.816;2023-07-22T01:40:19;100613.84;;;15.09;83.64
68994;BME280;56054;50.968;5.816;2023-07-22T01:43:26;100615.59;;;15.30;82.94
68994;BME280;56054;50.968;5.816;2023-07-22T01:46:33;100608.72;;;15.32;82.73
68994;BME280;56054;50.968;5.816;2023-07-22T01:49:40;100610.06;;;15.22;83.38
68994;BME280;56054;50.968;5.816;2023-07-22T01:52:47;100607.13;;;15.14;83.83
68994;BME280;56054;50.968;5.816;2023-07-22T01:55:54;100609.53;;;15.10;84.56
68994;BME280;56054;50.968;5.816;2023-07-22T01:59:01;100609.31;;;15.26;83.82
68994;BME280;56054;50.968;5.816;2023-07-22T02:02:08;100604.06;;;15.25;83.58
68994;BME280;56054;50.968;5.816;2023-07-22T02:05:15;100606.19;;;14.93;84.45
68994;BME280;56054;50.968;5.816;2023-07-22T02:08:22;100611.06;;;15.05;84.00
68994;BME280;56054;50.968;5.816;2023-07-22T02:11:29;100610.97;;;15.03;83.42
68994;BME280;56054;50.968;5.816;2023-07-22T02:14:37;100615.75;;;14.92;84.21
68994;BME280;56054;50.968;5.816;2023-07-22T02:17:43;100612.22;;;14.92;84.82
68994;BME280;56054;50.968;5.816;2023-07-22T02:20:50;100609.81;;;14.96;85.00
68994;BME280;56054;50.968;5.816;2023-07-22T02:23:57;100615.94;;;14.77;86.25
68994;BME280;56054;50.968;5.816;2023-07-22T02:27:04;100603.78;;;14.97;85.97
68994;BME280;56054;50.968;5.816;2023-07-22T02:30:11;100599.50;;;14.80;86.70
68994;BME280;56054;50.968;5.816;2023-07-22T02:33:19;100607.97;;;14.74;87.52
68994;BME280;56054;50.968;5.816;2023-07-22T02:36:27;100604.19;;;14.68;87.45
68994;BME280;56054;50.968;5.816;2023-07-22T02:39:33;100595.19;;;14.61;87.38
68994;BME280;56054;50.968;5.816;2023-07-22T02:42:40;100595.88;;;14.57;87.62
68994;BME280;56054;50.968;5.816;2023-07-22T02:45:47;100599.53;;;14.61;87.08
68994;BME280;56054;50.968;5.816;2023-07-22T02:48:54;100600.84;;;14.70;86.56
68994;BME280;56054;50.968;5.816;2023-07-22T02:52:01;100593.47;;;14.81;86.21
68994;BME280;56054;50.968;5.816;2023-07-22T02:58:16;100606.63;;;14.63;87.02
68994;BME280;56054;50.968;5.816;2023-07-22T03:01:23;100607.56;;;14.65;87.56
68994;BME280;56054;50.968;5.816;2023-07-22T03:04:30;100606.00;;;14.69;87.03
68994;BME280;56054;50.968;5.816;2023-07-22T03:07:38;100603.66;;;14.55;86.89
68994;BME280;56054;50.968;5.816;2023-07-22T03:10:45;100606.03;;;14.51;87.13
68994;BME280;56054;50.968;5.816;2023-07-22T03:13:52;100607.44;;;14.62;86.36
68994;BME280;56054;50.968;5.816;2023-07-22T03:16:59;100612.63;;;14.61;85.87
68994;BME280;56054;50.968;5.816;2023-07-22T03:20:06;100603.25;;;14.85;84.89
68994;BME280;56054;50.968;5.816;2023-07-22T03:23:13;100611.78;;;14.81;84.57
68994;BME280;56054;50.968;5.816;2023-07-22T03:26:20;100614.31;;;14.80;84.41
68994;BME280;56054;50.968;5.816;2023-07-22T03:29:27;100603.41;;;14.90;84.00
68994;BME280;56054;50.968;5.816;2023-07-22T03:32:34;100603.50;;;14.91;83.62
68994;BME280;56054;50.968;5.816;2023-07-22T03:35:41;100605.56;;;14.79;84.08
68994;BME280;56054;50.968;5.816;2023-07-22T03:38:48;100609.03;;;14.78;84.00
68994;BME280;56054;50.968;5.816;2023-07-22T03:41:55;100614.66;;;14.68;84.12
68994;BME280;56054;50.968;5.816;2023-07-22T03:45:02;100616.88;;;14.78;84.07
68994;BME280;56054;50.968;5.816;2023-07-22T03:48:09;100617.00;;;14.81;83.94
68994;BME280;56054;50.968;5.816;2023-07-22T03:51:16;100620.09;;;14.72;84.43
68994;BME280;56054;50.968;5.816;2023-07-22T03:54:23;100631.19;;;14.67;83.98
68994;BME280;56054;50.968;5.816;2023-07-22T03:57:31;100616.03;;;14.60;84.73
68994;BME280;56054;50.968;5.816;2023-07-22T04:00:38;100616.38;;;14.67;84.91
68994;BME280;56054;50.968;5.816;2023-07-22T04:03:45;100624.00;;;14.82;84.34
68994;BME280;56054;50.968;5.816;2023-07-22T04:06:52;100622.13;;;14.59;85.89
68994;BME280;56054;50.968;5.816;2023-07-22T04:09:59;100608.59;;;14.49;85.51
68994;BME280;56054;50.968;5.816;2023-07-22T04:13:06;100611.56;;;14.57;85.51
68994;BME280;56054;50.968;5.816;2023-07-22T04:16:13;100606.44;;;14.41;86.09
68994;BME280;56054;50.968;5.816;2023-07-22T04:19:23;100606.22;;;14.36;86.31
68994;BME280;56054;50.968;5.816;2023-07-22T04:22:30;100610.56;;;14.53;85.82
68994;BME280;56054;50.968;5.816;2023-07-22T04:25:44;100611.88;;;14.45;85.95
68994;BME280;56054;50.968;5.816;2023-07-22T04:28:50;100614.78;;;14.51;85.93
68994;BME280;56054;50.968;5.816;2023-07-22T04:31:58;100617.69;;;14.58;85.74
68994;BME280;56054;50.968;5.816;2023-07-22T04:35:06;100612.97;;;14.50;85.78
68994;BME280;56054;50.968;5.816;2023-07-22T04:38:13;100612.97;;;14.50;86.10
68994;BME280;56054;50.968;5.816;2023-07-22T04:41:20;100619.34;;;14.55;86.49
68994;BME280;56054;50.968;5.816;2023-07-22T04:44:27;100612.75;;;14.64;86.32
68994;BME280;56054;50.968;5.816;2023-07-22T04:47:34;100611.66;;;14.59;86.72
68994;BME280;56054;50.968;5.816;2023-07-22T04:50:42;100616.56;;;14.52;86.59
68994;BME280;56054;50.968;5.816;2023-07-22T04:53:49;100621.41;;;14.63;86.22
68994;BME280;56054;50.968;5.816;2023-07-22T04:56:56;100610.69;;;14.57;86.83
68994;BME280;56054;50.968;5.816;2023-07-22T05:00:03;100618.69;;;14.42;87.24
68994;BME280;56054;50.968;5.816;2023-07-22T05:03:10;100612.88;;;14.67;86.74
68994;BME280;56054;50.968;5.816;2023-07-22T05:06:17;100611.06;;;14.46;86.87
68994;BME280;56054;50.968;5.816;2023-07-22T05:09:24;100604.16;;;14.48;87.18
68994;BME280;56054;50.968;5.816;2023-07-22T05:12:31;100607.53;;;14.46;87.07
68994;BME280;56054;50.968;5.816;2023-07-22T05:15:38;100605.31;;;14.53;86.83
68994;BME280;56054;50.968;5.816;2023-07-22T05:18:45;100614.28;;;14.59;87.04
68994;BME280;56054;50.968;5.816;2023-07-22T05:21:52;100611.78;;;14.62;86.90
68994;BME280;56054;50.968;5.816;2023-07-22T05:24:59;100615.78;;;14.73;86.15
68994;BME280;56054;50.968;5.816;2023-07-22T05:28:06;100617.47;;;14.72;86.46
68994;BME280;56054;50.968;5.816;2023-07-22T05:31:13;100615.63;;;14.70;85.97
68994;BME280;56054;50.968;5.816;2023-07-22T05:34:20;100610.81;;;14.79;85.91
68994;BME280;56054;50.968;5.816;2023-07-22T05:37:27;100616.13;;;14.81;86.10
68994;BME280;56054;50.968;5.816;2023-07-22T05:40:34;100620.03;;;14.71;86.24
68994;BME280;56054;50.968;5.816;2023-07-22T05:43:41;100623.00;;;14.79;86.31
68994;BME280;56054;50.968;5.816;2023-07-22T05:46:48;100620.59;;;14.83;86.16
68994;BME280;56054;50.968;5.816;2023-07-22T05:49:55;100610.94;;;14.82;86.70
68994;BME280;56054;50.968;5.816;2023-07-22T05:53:02;100625.88;;;14.85;86.55
68994;BME280;56054;50.968;5.816;2023-07-22T05:56:09;100624.72;;;14.78;87.03
68994;BME280;56054;50.968;5.816;2023-07-22T05:59:16;100614.59;;;14.86;86.29
68994;BME280;56054;50.968;5.816;2023-07-22T06:02:23;100612.19;;;14.90;86.65
68994;BME280;56054;50.968;5.816;2023-07-22T06:05:30;100626.47;;;14.98;86.60
68994;BME280;56054;50.968;5.816;2023-07-22T06:08:37;100624.97;;;14.84;87.86
68994;BME280;56054;50.968;5.816;2023-07-22T06:11:44;100622.50;;;14.87;87.97
68994;BME280;56054;50.968;5.816;2023-07-22T06:14:51;100629.75;;;14.73;88.39
68994;BME280;56054;50.968;5.816;2023-07-22T06:17:59;100628.34;;;14.82;88.68
68994;BME280;56054;50.968;5.816;2023-07-22T06:21:06;100631.19;;;14.86;88.62
68994;BME280;56054;50.968;5.816;2023-07-22T06:24:13;100629.72;;;14.93;88.85
68994;BME280;56054;50.968;5.816;2023-07-22T06:27:20;100634.53;;;15.03;88.68
68994;BME280;56054;50.968;5.816;2023-07-22T06:30:27;100636.28;;;14.83;89.65
68994;BME280;56054;50.968;5.816;2023-07-22T06:33:41;100638.81;;;15.01;89.36
68994;BME280;56054;50.968;5.816;2023-07-22T06:36:48;100633.78;;;15.06;89.81
68994;BME280;56054;50.968;5.816;2023-07-22T06:39:55;100637.03;;;15.00;90.32
68994;BME280;56054;50.968;5.816;2023-07-22T06:43:02;100632.53;;;15.17;89.75
68994;BME280;56054;50.968;5.816;2023-07-22T06:46:09;100636.03;;;15.38;90.06
68994;BME280;56054;50.968;5.816;2023-07-22T06:49:16;100629.25;;;15.65;89.33
68994;BME280;56054;50.968;5.816;2023-07-22T06:52:23;100623.06;;;15.62;88.70
68994;BME280;56054;50.968;5.816;2023-07-22T06:55:30;100625.78;;;15.85;88.65
68994;BME280;56054;50.968;5.816;2023-07-22T06:58:37;100626.28;;;15.99;88.46
68994;BME280;56054;50.968;5.816;2023-07-22T07:01:44;100625.03;;;16.12;87.71
68994;BME280;56054;50.968;5.816;2023-07-22T07:04:51;100625.22;;;16.39;87.61
68994;BME280;56054;50.968;5.816;2023-07-22T07:07:58;100624.63;;;16.46;87.32
68994;BME280;56054;50.968;5.816;2023-07-22T07:11:05;100625.28;;;16.64;88.14
68994;BME280;56054;50.968;5.816;2023-07-22T07:14:12;100613.50;;;16.77;88.13
68994;BME280;56054;50.968;5.816;2023-07-22T07:17:19;100621.19;;;16.95;88.25
68994;BME280;56054;50.968;5.816;2023-07-22T07:20:26;100620.88;;;17.11;88.13
68994;BME280;56054;50.968;5.816;2023-07-22T07:23:33;100628.88;;;17.15;87.71
68994;BME280;56054;50.968;5.816;2023-07-22T07:26:40;100625.50;;;16.93;88.36
68994;BME280;56054;50.968;5.816;2023-07-22T07:29:47;100620.16;;;17.16;87.56
68994;BME280;56054;50.968;5.816;2023-07-22T07:32:54;100624.88;;;17.26;87.37
68994;BME280;56054;50.968;5.816;2023-07-22T07:36:01;100625.41;;;17.41;86.94
68994;BME280;56054;50.968;5.816;2023-07-22T07:39:08;100623.06;;;17.50;86.55
68994;BME280;56054;50.968;5.816;2023-07-22T07:42:15;100623.72;;;17.43;88.05
68994;BME280;56054;50.968;5.816;2023-07-22T07:45:22;100629.97;;;17.74;86.75
68994;BME280;56054;50.968;5.816;2023-07-22T07:48:29;100621.50;;;17.81;87.19
68994;BME280;56054;50.968;5.816;2023-07-22T07:51:36;100627.69;;;17.83;86.92
68994;BME280;56054;50.968;5.816;2023-07-22T07:54:43;100621.88;;;17.93;87.31
68994;BME280;56054;50.968;5.816;2023-07-22T07:57:50;100625.44;;;17.95;87.39
68994;BME280;56054;50.968;5.816;2023-07-22T08:00:58;100624.22;;;17.84;86.74
68994;BME280;56054;50.968;5.816;2023-07-22T08:04:04;100626.00;;;17.85;87.03
68994;BME280;56054;50.968;5.816;2023-07-22T08:07:15;100626.75;;;17.81;86.66
68994;BME280;56054;50.968;5.816;2023-07-22T08:10:22;100628.06;;;17.95;86.81
68994;BME280;56054;50.968;5.816;2023-07-22T08:13:30;100629.06;;;17.99;86.58
68994;BME280;56054;50.968;5.816;2023-07-22T08:16:37;100624.94;;;18.07;85.80
68994;BME280;56054;50.968;5.816;2023-07-22T08:19:44;100628.78;;;18.18;84.16
68994;BME280;56054;50.968;5.816;2023-07-22T08:22:51;100626.13;;;18.17;83.56
68994;BME280;56054;50.968;5.816;2023-07-22T08:25:58;100616.78;;;18.27;82.78
68994;BME280;56054;50.968;5.816;2023-07-22T08:29:05;100625.34;;;18.50;82.38
68994;BME280;56054;50.968;5.816;2023-07-22T08:32:12;100622.13;;;18.30;82.85
68994;BME280;56054;50.968;5.816;2023-07-22T08:35:19;100633.97;;;18.46;82.51
68994;BME280;56054;50.968;5.816;2023-07-22T08:38:26;100625.41;;;18.53;81.54
68994;BME280;56054;50.968;5.816;2023-07-22T08:41:33;100625.91;;;19.00;80.56
68994;BME280;56054;50.968;5.816;2023-07-22T08:44:43;100629.81;;;19.14;77.86
68994;BME280;56054;50.968;5.816;2023-07-22T08:47:51;100621.97;;;19.17;77.81
68994;BME280;56054;50.968;5.816;2023-07-22T08:51:18;100620.41;;;19.24;76.88
68994;BME280;56054;50.968;5.816;2023-07-22T08:54:26;100615.41;;;19.35;75.51
68994;BME280;56054;50.968;5.816;2023-07-22T08:57:35;100628.72;;;19.41;75.31
68994;BME280;56054;50.968;5.816;2023-07-22T09:00:43;100621.44;;;19.31;75.02
68994;BME280;56054;50.968;5.816;2023-07-22T09:03:49;100620.28;;;19.19;74.47
68994;BME280;56054;50.968;5.816;2023-07-22T09:06:59;100628.19;;;19.19;74.47
68994;BME280;56054;50.968;5.816;2023-07-22T09:10:08;100626.56;;;19.24;73.96
68994;BME280;56054;50.968;5.816;2023-07-22T09:13:17;100626.56;;;19.24;72.79
68994;BME280;56054;50.968;5.816;2023-07-22T09:16:26;100626.25;;;19.47;72.35
68994;BME280;56054;50.968;5.816;2023-07-22T09:19:33;100629.81;;;19.49;70.65
68994;BME280;56054;50.968;5.816;2023-07-22T09:22:44;100622.53;;;19.39;71.85
68994;BME280;56054;50.968;5.816;2023-07-22T09:26:08;100631.84;;;19.26;70.03
68994;BME280;56054;50.968;5.816;2023-07-22T09:29:14;100626.69;;;19.31;70.15
68994;BME280;56054;50.968;5.816;2023-07-22T09:32:35;100631.72;;;19.21;69.59
68994;BME280;56054;50.968;5.816;2023-07-22T09:35:47;100617.16;;;19.34;68.90
68994;BME280;56054;50.968;5.816;2023-07-22T09:39:01;100628.66;;;19.73;66.74
68994;BME280;56054;50.968;5.816;2023-07-22T09:42:08;100623.00;;;19.94;64.72
68994;BME280;56054;50.968;5.816;2023-07-22T09:45:16;100623.50;;;19.77;64.75
68994;BME280;56054;50.968;5.816;2023-07-22T09:48:23;100621.25;;;19.94;65.34
68994;BME280;56054;50.968;5.816;2023-07-22T09:51:38;100620.47;;;19.98;64.48
68994;BME280;56054;50.968;5.816;2023-07-22T09:54:48;100620.25;;;20.27;64.48
68994;BME280;56054;50.968;5.816;2023-07-22T09:57:57;100617.53;;;20.24;62.40
68994;BME280;56054;50.968;5.816;2023-07-22T10:01:05;100618.91;;;20.46;61.61
68994;BME280;56054;50.968;5.816;2023-07-22T10:04:15;100617.53;;;20.24;61.85
68994;BME280;56054;50.968;5.816;2023-07-22T10:07:26;100611.69;;;20.37;60.95
68994;BME280;56054;50.968;5.816;2023-07-22T10:10:35;100613.00;;;20.58;58.72
68994;BME280;56054;50.968;5.816;2023-07-22T10:13:44;100607.81;;;20.61;60.18
68994;BME280;56054;50.968;5.816;2023-07-22T10:16:51;100621.25;;;20.73;60.69
68994;BME280;56054;50.968;5.816;2023-07-22T10:19:59;100615.38;;;20.89;59.30
68994;BME280;56054;50.968;5.816;2023-07-22T10:23:06;100612.19;;;21.06;58.32
68994;BME280;56054;50.968;5.816;2023-07-22T10:26:17;100604.59;;;20.77;58.22
68994;BME280;56054;50.968;5.816;2023-07-22T10:29:25;100612.22;;;21.07;57.32
68994;BME280;56054;50.968;5.816;2023-07-22T10:32:37;100611.22;;;21.01;57.00
68994;BME280;56054;50.968;5.816;2023-07-22T10:36:12;100597.88;;;20.94;55.76
68994;BME280;56054;50.968;5.816;2023-07-22T10:39:26;100590.16;;;21.05;55.87
68994;BME280;56054;50.968;5.816;2023-07-22T10:42:33;100601.00;;;21.21;56.03
68994;BME280;56054;50.968;5.816;2023-07-22T10:45:42;100587.53;;;21.57;55.54
68994;BME280;56054;50.968;5.816;2023-07-22T10:48:49;100572.50;;;21.53;56.29
68994;BME280;56054;50.968;5.816;2023-07-22T10:51:57;100568.13;;;21.53;55.93
68994;BME280;56054;50.968;5.816;2023-07-22T10:55:03;100568.47;;;21.76;54.40
68994;BME280;56054;50.968;5.816;2023-07-22T10:58:10;100570.25;;;22.41;54.27
68994;BME280;56054;50.968;5.816;2023-07-22T11:04:34;100573.63;;;22.30;53.87
68994;BME280;56054;50.968;5.816;2023-07-22T11:07:44;100566.16;;;22.68;50.06
68994;BME280;56054;50.968;5.816;2023-07-22T11:10:53;100551.94;;;22.58;49.15
68994;BME280;56054;50.968;5.816;2023-07-22T11:14:46;100552.66;;;22.48;49.80
68994;BME280;56054;50.968;5.816;2023-07-22T11:17:54;100556.47;;;22.72;49.42
68994;BME280;56054;50.968;5.816;2023-07-22T11:21:00;100559.25;;;22.87;49.87
68994;BME280;56054;50.968;5.816;2023-07-22T11:24:07;100559.38;;;22.96;49.82
68994;BME280;56054;50.968;5.816;2023-07-22T11:27:15;100545.97;;;22.78;48.90
68994;BME280;56054;50.968;5.816;2023-07-22T11:30:24;100539.31;;;23.23;47.80
68994;BME280;56054;50.968;5.816;2023-07-22T11:33:40;100545.66;;;23.43;45.47
68994;BME280;56054;50.968;5.816;2023-07-22T11:36:48;100540.34;;;23.39;46.21
68994;BME280;56054;50.968;5.816;2023-07-22T11:40:02;100547.00;;;22.95;47.08
68994;BME280;56054;50.968;5.816;2023-07-22T11:43:10;100534.56;;;22.88;46.62
68994;BME280;56054;50.968;5.816;2023-07-22T11:46:17;100542.50;;;22.88;46.85
68994;BME280;56054;50.968;5.816;2023-07-22T11:49:32;100530.75;;;22.61;47.59
68994;BME280;56054;50.968;5.816;2023-07-22T11:52:39;100533.28;;;22.49;47.29
68994;BME280;56054;50.968;5.816;2023-07-22T11:55:46;100534.28;;;22.62;47.51
68994;BME280;56054;50.968;5.816;2023-07-22T11:58:55;100524.44;;;22.50;46.89
68994;BME280;56054;50.968;5.816;2023-07-22T12:02:03;100530.13;;;22.87;47.53
68994;BME280;56054;50.968;5.816;2023-07-22T12:05:10;100532.25;;;23.22;46.81
68994;BME280;56054;50.968;5.816;2023-07-22T12:08:17;100520.59;;;23.00;46.99
68994;BME280;56054;50.968;5.816;2023-07-22T12:11:26;100517.78;;;22.89;46.38
68994;BME280;56054;50.968;5.816;2023-07-22T12:14:34;100512.44;;;22.84;47.75
68994;BME280;56054;50.968;5.816;2023-07-22T12:20:52;100509.50;;;23.55;46.46
68994;BME280;56054;50.968;5.816;2023-07-22T12:24:00;100513.16;;;23.72;46.43
68994;BME280;56054;50.968;5.816;2023-07-22T12:27:07;100505.13;;;23.61;46.27
68994;BME280;56054;50.968;5.816;2023-07-22T12:30:14;100505.91;;;23.42;46.90
68994;BME280;56054;50.968;5.816;2023-07-22T12:33:28;100501.44;;;23.38;46.50
68994;BME280;56054;50.968;5.816;2023-07-22T12:36:35;100509.56;;;23.64;45.89
68994;BME280;56054;50.968;5.816;2023-07-22T12:39:42;100522.22;;;24.08;44.00
68994;BME280;56054;50.968;5.816;2023-07-22T12:42:49;100498.34;;;24.11;43.80
68994;BME280;56054;50.968;5.816;2023-07-22T12:45:56;100503.53;;;23.86;44.80
68994;BME280;56054;50.968;5.816;2023-07-22T12:49:03;100495.75;;;24.22;44.34
68994;BME280;56054;50.968;5.816;2023-07-22T12:52:10;100489.31;;;23.74;44.33
68994;BME280;56054;50.968;5.816;2023-07-22T12:55:17;100490.88;;;23.45;44.94
68994;BME280;56054;50.968;5.816;2023-07-22T12:58:24;100492.06;;;23.97;44.18
68994;BME280;56054;50.968;5.816;2023-07-22T13:01:31;100485.00;;;23.96;43.89
68994;BME280;56054;50.968;5.816;2023-07-22T13:04:38;100492.09;;;24.01;42.90
68994;BME280;56054;50.968;5.816;2023-07-22T13:07:45;100490.38;;;24.05;42.90
68994;BME280;56054;50.968;5.816;2023-07-22T13:10:52;100486.78;;;23.95;42.34
68994;BME280;56054;50.968;5.816;2023-07-22T13:13:59;100483.78;;;23.43;42.90
68994;BME280;56054;50.968;5.816;2023-07-22T13:17:06;100487.72;;;24.05;41.94
68994;BME280;56054;50.968;5.816;2023-07-22T13:20:13;100475.28;;;23.99;42.16
68994;BME280;56054;50.968;5.816;2023-07-22T13:23:20;100474.53;;;24.29;41.63
68994;BME280;56054;50.968;5.816;2023-07-22T13:26:27;100471.00;;;24.40;41.04
68994;BME280;56054;50.968;5.816;2023-07-22T13:29:34;100463.81;;;24.00;42.38
68994;BME280;56054;50.968;5.816;2023-07-22T13:32:41;100465.59;;;24.06;41.75
68994;BME280;56054;50.968;5.816;2023-07-22T13:35:48;100463.72;;;23.83;41.99
68994;BME280;56054;50.968;5.816;2023-07-22T13:38:55;100465.50;;;23.86;42.44
68994;BME280;56054;50.968;5.816;2023-07-22T13:42:02;100467.00;;;23.45;43.04
68994;BME280;56054;50.968;5.816;2023-07-22T13:45:10;100466.13;;;23.43;42.88
68994;BME280;56054;50.968;5.816;2023-07-22T13:48:16;100451.22;;;23.67;43.54
68994;BME280;56054;50.968;5.816;2023-07-22T13:51:23;100462.72;;;23.66;43.62
68994;BME280;56054;50.968;5.816;2023-07-22T13:54:30;100450.03;;;23.14;43.17
68994;BME280;56054;50.968;5.816;2023-07-22T13:57:37;100447.78;;;23.77;43.28
68994;BME280;56054;50.968;5.816;2023-07-22T14:00:44;100453.25;;;24.17;41.81
68994;BME280;56054;50.968;5.816;2023-07-22T14:03:51;100441.78;;;24.29;41.50
68994;BME280;56054;50.968;5.816;2023-07-22T14:06:58;100442.56;;;23.99;40.56
68994;BME280;56054;50.968;5.816;2023-07-22T14:10:06;100445.72;;;23.33;41.75
68994;BME280;56054;50.968;5.816;2023-07-22T14:13:12;100432.78;;;23.91;41.29
68994;BME280;56054;50.968;5.816;2023-07-22T14:16:19;100430.31;;;24.50;41.46
68994;BME280;56054;50.968;5.816;2023-07-22T14:19:26;100435.66;;;24.96;40.33
68994;BME280;56054;50.968;5.816;2023-07-22T14:22:33;100431.94;;;23.99;40.90
68994;BME280;56054;50.968;5.816;2023-07-22T14:25:43;100417.94;;;24.84;40.19
68994;BME280;56054;50.968;5.816;2023-07-22T14:28:50;100425.94;;;24.73;40.78
68994;BME280;56054;50.968;5.816;2023-07-22T14:31:57;100428.59;;;24.81;40.47
68994;BME280;56054;50.968;5.816;2023-07-22T14:35:05;100431.13;;;24.20;40.96
68994;BME280;56054;50.968;5.816;2023-07-22T14:38:11;100433.88;;;24.52;40.53
68994;BME280;56054;50.968;5.816;2023-07-22T14:41:18;100421.44;;;24.45;40.94
68994;BME280;56054;50.968;5.816;2023-07-22T14:44:25;100412.63;;;24.89;40.72
68994;BME280;56054;50.968;5.816;2023-07-22T14:47:32;100422.38;;;24.68;40.82
68994;BME280;56054;50.968;5.816;2023-07-22T14:50:39;100421.44;;;24.45;40.96
68994;BME280;56054;50.968;5.816;2023-07-22T14:53:46;100412.47;;;23.93;41.82
68994;BME280;56054;50.968;5.816;2023-07-22T14:56:53;100414.25;;;24.04;42.27
68994;BME280;56054;50.968;5.816;2023-07-22T15:00:00;100412.53;;;24.12;41.52
68994;BME280;56054;50.968;5.816;2023-07-22T15:03:07;100419.47;;;23.79;42.19
68994;BME280;56054;50.968;5.816;2023-07-22T15:06:14;100414.31;;;24.22;42.20
68994;BME280;56054;50.968;5.816;2023-07-22T15:09:21;100424.81;;;23.81;43.37
68994;BME280;56054;50.968;5.816;2023-07-22T15:12:36;100419.63;;;24.19;41.94
68994;BME280;56054;50.968;5.816;2023-07-22T15:15:42;100414.28;;;24.16;42.78
68994;BME280;56054;50.968;5.816;2023-07-22T15:18:49;100423.97;;;23.94;43.15
68994;BME280;56054;50.968;5.816;2023-07-22T15:21:56;100423.03;;;23.81;43.35
68994;BME280;56054;50.968;5.816;2023-07-22T15:25:04;100431.06;;;24.00;44.11
68994;BME280;56054;50.968;5.816;2023-07-22T15:28:10;100433.31;;;23.26;44.37
68994;BME280;56054;50.968;5.816;2023-07-22T15:31:18;100439.59;;;23.40;44.30
68994;BME280;56054;50.968;5.816;2023-07-22T15:34:28;100427.34;;;23.64;44.35
68994;BME280;56054;50.968;5.816;2023-07-22T15:37:35;100430.09;;;23.82;44.10
68994;BME280;56054;50.968;5.816;2023-07-22T15:40:43;100422.06;;;23.67;42.77
68994;BME280;56054;50.968;5.816;2023-07-22T15:43:49;100418.50;;;23.65;42.97
68994;BME280;56054;50.968;5.816;2023-07-22T15:46:56;100417.59;;;23.57;43.37
68994;BME280;56054;50.968;5.816;2023-07-22T15:50:04;100428.91;;;23.28;42.97
68994;BME280;56054;50.968;5.816;2023-07-22T15:53:10;100421.84;;;23.28;43.21
68994;BME280;56054;50.968;5.816;2023-07-22T15:56:17;100424.56;;;23.38;43.46
68994;BME280;56054;50.968;5.816;2023-07-22T15:59:24;100419.16;;;23.22;43.66
68994;BME280;56054;50.968;5.816;2023-07-22T16:02:31;100411.28;;;23.38;43.49
68994;BME280;56054;50.968;5.816;2023-07-22T16:05:38;100413.91;;;23.33;43.99
68994;BME280;56054;50.968;5.816;2023-07-22T16:08:45;100417.38;;;23.17;44.01
68994;BME280;56054;50.968;5.816;2023-07-22T16:11:52;100414.75;;;23.23;43.51
68994;BME280;56054;50.968;5.816;2023-07-22T16:14:59;100412.03;;;23.15;43.73
68994;BME280;56054;50.968;5.816;2023-07-22T16:18:06;100414.75;;;23.26;44.25
68994;BME280;56054;50.968;5.816;2023-07-22T16:21:13;100405.03;;;23.25;44.31
68994;BME280;56054;50.968;5.816;2023-07-22T16:24:20;100399.66;;;23.11;44.64
68994;BME280;56054;50.968;5.816;2023-07-22T16:27:28;100405.06;;;23.26;44.78
68994;BME280;56054;50.968;5.816;2023-07-22T16:30:34;100400.47;;;23.02;44.27